Time;durP1;ratioP1;P1;durP2;ratioP2;P2;SDS_P1;SDS_P2;PMS_P1;PMS_P2;Temp;Humidity;BMP_temperature;BMP_pressure;BME280_temperature;BME280_humidity;BME280_pressure;Samples;Min_cycle;Max_cycle;Signal;HPM_P1;HPM_P2
2023/03/24 00:02:08;;;;;;;35.03;24.63;;;;;;;6.62;100.00;101197.72;5050501;28;20067;-70
2023/03/24 00:04:34;;;;;;;32.25;24.08;;;;;;;6.27;100.00;101118.31;5050443;28;20060;-72
2023/03/24 00:07:02;;;;;;;35.78;24.98;;;;;;;6.25;100.00;101143.56;5050864;28;20036;-70
2023/03/24 00:09:29;;;;;;;38.58;27.63;;;;;;;6.53;100.00;101195.13;5050526;28;20032;-71
2023/03/24 00:11:55;;;;;;;55.58;33.38;;;;;;;5.85;100.00;101176.81;5050576;28;20029;-71
2023/03/24 00:14:22;;;;;;;48.72;30.45;;;;;;;5.59;100.00;101150.41;5049445;28;20033;-71
2023/03/24 00:16:48;;;;;;;35.03;22.08;;;;;;;5.43;100.00;101161.19;5048844;28;20029;-71
2023/03/24 00:19:15;;;;;;;34.55;22.80;;;;;;;5.37;100.00;101196.41;5049189;28;20120;-71
2023/03/24 00:21:41;;;;;;;33.10;20.27;;;;;;;5.20;100.00;101197.03;5049285;28;20052;-72
2023/03/24 00:24:08;;;;;;;41.63;21.13;;;;;;;4.90;100.00;101153.78;5051020;28;20029;-72
2023/03/24 00:26:36;;;;;;;49.75;21.38;;;;;;;4.27;100.00;101120.09;5050758;28;20017;-72
2023/03/24 00:29:03;;;;;;;44.10;21.17;;;;;;;4.45;100.00;101145.56;5050457;28;20032;-72
2023/03/24 00:31:29;;;;;;;51.42;27.42;;;;;;;4.92;100.00;101189.06;5053208;28;20403;-72
2023/03/24 00:33:55;;;;;;;48.85;26.58;;;;;;;5.00;100.00;101190.00;5054722;28;20025;-71
2023/03/24 00:36:23;;;;;;;90.10;40.03;;;;;;;4.63;100.00;101157.56;5053633;28;20047;-71
2023/03/24 00:38:49;;;;;;;74.20;34.60;;;;;;;4.51;100.00;101143.13;5052443;28;20029;-72
2023/03/24 00:41:18;;;;;;;51.53;22.30;;;;;;;4.84;100.00;101180.53;5053512;28;20025;-70
2023/03/24 00:43:45;;;;;;;42.42;22.75;;;;;;;4.85;100.00;101175.53;5052269;28;20040;-71
2023/03/24 00:46:12;;;;;;;45.00;24.00;;;;;;;4.78;100.00;101198.09;5053666;28;20094;-71
2023/03/24 00:48:40;;;;;;;42.15;22.85;;;;;;;4.74;100.00;101164.47;5054191;28;20025;-72
2023/03/24 00:51:09;;;;;;;44.55;22.80;;;;;;;4.61;100.00;101161.72;5053672;28;20021;-71
2023/03/24 00:53:36;;;;;;;32.40;21.33;;;;;;;4.68;100.00;101161.84;5053926;28;20029;-71
2023/03/24 00:56:02;;;;;;;24.45;17.30;;;;;;;4.92;100.00;101152.13;5053624;28;20036;-72
2023/03/24 00:58:33;;;;;;;19.30;15.93;;;;;;;5.22;100.00;101192.88;5054073;28;20033;-72
2023/03/24 01:00:59;;;;;;;18.25;15.27;;;;;;;5.54;100.00;101199.97;5053955;28;20621;-72
2023/03/24 01:03:28;;;;;;;17.95;14.98;;;;;;;4.94;100.00;101147.97;5052669;28;20408;-73
2023/03/24 01:06:00;;;;;;;40.80;18.67;;;;;;;5.44;100.00;101196.50;5052784;28;20044;-73
2023/03/24 01:08:27;;;;;;;51.90;21.13;;;;;;;5.15;100.00;101193.59;5054538;28;20063;-72
2023/03/24 01:10:53;;;;;;;113.15;21.23;;;;;;;5.06;100.00;101180.88;5054090;28;20116;-71
2023/03/24 01:13:29;;;;;;;145.73;23.92;;;;;;;5.00;100.00;101192.53;5053355;28;20116;-72
2023/03/24 01:15:55;;;;;;;118.63;27.45;;;;;;;4.89;100.00;101172.22;5046609;28;20037;-72
2023/03/24 01:18:24;;;;;;;115.65;28.30;;;;;;;4.72;100.00;101178.69;5053359;28;20190;-72
2023/03/24 01:20:50;;;;;;;60.97;24.70;;;;;;;4.47;100.00;101122.91;5053512;28;20036;-72
2023/03/24 01:23:21;;;;;;;29.63;18.65;;;;;;;4.82;100.00;101137.72;5053482;28;20040;-72
2023/03/24 01:25:48;;;;;;;49.90;19.65;;;;;;;4.66;100.00;101133.28;5051729;28;20036;-71
2023/03/24 01:28:17;;;;;;;30.75;18.02;;;;;;;4.89;100.00;101083.22;5053356;28;20039;-71
2023/03/24 01:30:43;;;;;;;34.58;18.73;;;;;;;5.11;100.00;101106.16;5053760;28;20029;-73
2023/03/24 01:33:09;;;;;;;29.05;15.82;;;;;;;5.59;100.00;101137.81;5053521;28;20028;-72
2023/03/24 01:35:35;;;;;;;30.83;16.80;;;;;;;5.10;100.00;101134.72;5053036;28;20029;-72
2023/03/24 01:38:06;;;;;;;35.78;18.05;;;;;;;5.04;100.00;101073.31;5053955;28;20497;-72
2023/03/24 01:40:33;;;;;;;36.90;20.02;;;;;;;5.20;100.00;101055.88;5053069;28;20040;-74
2023/03/24 01:43:00;;;;;;;55.83;17.45;;;;;;;5.40;100.00;101098.09;5052550;28;20123;-72
2023/03/24 01:45:37;;;;;;;35.95;17.13;;;;;;;5.39;100.00;101097.25;5053481;28;20036;-72
2023/03/24 01:48:06;;;;;;;38.75;18.38;;;;;;;5.10;100.00;101046.53;5053545;28;20037;-73
2023/03/24 01:50:31;;;;;;;42.33;19.95;;;;;;;5.32;100.00;101057.69;5053159;28;20037;-73
2023/03/24 01:52:58;;;;;;;54.05;18.95;;;;;;;5.16;100.00;101040.72;5052661;28;20032;-73
2023/03/24 01:55:24;;;;;;;67.05;19.92;;;;;;;4.97;100.00;101066.53;5053228;28;20025;-72
2023/03/24 01:57:57;;;;;;;48.53;18.80;;;;;;;5.41;100.00;101062.81;5052748;28;20503;-72
2023/03/24 02:00:23;;;;;;;46.03;19.65;;;;;;;5.17;100.00;101005.44;5053010;28;20048;-73
2023/03/24 02:02:57;;;;;;;57.35;19.27;;;;;;;5.02;100.00;101009.47;5052578;28;20473;-72
2023/03/24 02:05:28;;;;;;;86.32;19.77;;;;;;;4.29;100.00;100950.69;5051758;28;20029;-73
2023/03/24 02:08:26;;;;;;;85.75;20.50;;;;;;;5.01;100.00;101036.34;5051726;28;20037;-74
2023/03/24 02:10:54;;;;;;;105.40;23.40;;;;;;;5.15;100.00;101047.41;5052979;28;20090;-73
2023/03/24 02:13:21;;;;;;;80.22;20.85;;;;;;;4.80;100.00;100995.78;5053017;28;20036;-73
2023/03/24 02:16:05;;;;;;;109.47;22.00;;;;;;;4.76;100.00;101039.41;5051479;28;20033;-73
2023/03/24 02:19:03;;;;;;;111.82;22.33;;;;;;;4.51;100.00;101021.44;5051696;28;20037;-73
2023/03/24 02:21:49;;;;;;;143.95;22.45;;;;;;;4.57;100.00;100984.59;5025908;28;20037;-73
2023/03/24 02:24:42;;;;;;;53.33;20.50;;;;;;;4.92;100.00;100972.41;5052568;28;20025;-73
2023/03/24 02:27:41;;;;;;;118.35;21.10;;;;;;;4.64;100.00;100950.25;5051327;28;20067;-73
2023/03/24 02:30:20;;;;;;;332.58;26.27;;;;;;;4.70;100.00;100910.03;5051136;28;20147;-72
2023/03/24 02:32:45;;;;;;;146.07;21.63;;;;;;;4.57;100.00;100939.28;5050384;28;20040;-72
2023/03/24 02:35:38;;;;;;;142.43;22.02;;;;;;;4.86;100.00;100950.53;5052221;28;20029;-72
2023/03/24 02:38:40;;;;;;;226.00;24.75;;;;;;;5.16;100.00;100947.47;5051990;28;20156;-72
2023/03/24 02:41:24;;;;;;;174.00;24.90;;;;;;;5.07;100.00;100962.50;5052123;28;20040;-72
2023/03/24 02:43:55;;;;;;;146.43;23.77;;;;;;;5.08;100.00;100985.19;5051814;28;20029;-72
2023/03/24 02:46:26;;;;;;;139.38;24.23;;;;;;;4.94;100.00;100935.47;5051173;28;20093;-72
2023/03/24 02:49:03;;;;;;;161.10;25.17;;;;;;;5.08;100.00;100974.25;5050593;28;20491;-71
2023/03/24 02:51:32;;;;;;;85.00;23.88;;;;;;;4.93;100.00;100976.63;5050071;28;20040;-72
2023/03/24 02:54:06;;;;;;;146.73;26.08;;;;;;;5.11;100.00;100970.09;5049620;28;20078;-72
2023/03/24 02:56:48;;;;;;;101.35;23.50;;;;;;;5.27;100.00;100966.03;5051742;28;20029;-71
2023/03/24 02:59:19;;;;;;;;;;;;;;;5.05;100.00;100967.50;5051989;28;20036;-72
2023/03/24 03:01:57;;;;;;;168.05;22.95;;;;;;;5.08;100.00;100974.25;5050430;28;19965;-73
2023/03/24 03:04:32;;;;;;;86.20;20.77;;;;;;;5.11;100.00;100959.19;5051955;28;20117;-72
2023/03/24 03:07:05;;;;;;;102.35;21.23;;;;;;;4.91;100.00;100912.78;5050406;28;20084;-72
2023/03/24 03:09:34;;;;;;;76.63;19.95;;;;;;;5.21;100.00;100971.88;5052131;28;20506;-73
2023/03/24 03:12:00;;;;;;;73.93;19.90;;;;;;;5.22;100.00;100967.69;5052087;28;20060;-72
2023/03/24 03:14:34;;;;;;;110.45;20.35;;;;;;;4.97;100.00;100966.59;5051282;28;20021;-72
2023/03/24 03:17:10;;;;;;;199.43;21.23;;;;;;;4.89;100.00;100959.78;5051633;28;20060;-72
2023/03/24 03:19:42;;;;;;;97.53;19.52;;;;;;;4.56;100.00;100927.50;5051609;28;20028;-72
2023/03/24 03:22:15;;;;;;;102.72;19.80;;;;;;;4.41;100.00;100919.78;5050306;28;20560;-72
2023/03/24 03:24:45;;;;;;;58.20;17.90;;;;;;;4.39;100.00;100896.28;5049880;28;20086;-73
2023/03/24 03:27:19;;;;;;;83.40;17.50;;;;;;;4.83;100.00;100970.63;5049906;28;20055;-72
2023/03/24 03:29:53;;;;;;;78.75;17.45;;;;;;;4.76;100.00;100966.34;5051202;28;20036;-73
2023/03/24 03:32:27;;;;;;;69.97;18.23;;;;;;;4.77;100.00;100915.19;5051493;28;20037;-73
2023/03/24 03:35:13;;;;;;;122.88;19.90;;;;;;;4.75;100.00;100936.97;5051683;28;20028;-72
2023/03/24 03:37:49;;;;;;;112.18;21.67;;;;;;;4.05;100.00;100862.31;5051161;28;20056;-72
2023/03/24 03:40:24;;;;;;;110.78;22.25;;;;;;;3.96;100.00;100861.38;5050657;28;20773;-72
2023/03/24 03:42:50;;;;;;;142.45;23.33;;;;;;;3.58;100.00;100872.56;5050978;28;20051;-71
2023/03/24 03:45:16;;;;;;;69.30;22.42;;;;;;;3.73;100.00;100856.00;5050661;28;20115;-71
2023/03/24 03:47:42;;;;;;;70.13;24.90;;;;;;;3.74;100.00;100889.56;5050029;28;20129;-72
2023/03/24 03:50:08;;;;;;;97.00;23.35;;;;;;;3.78;100.00;100872.03;5050565;28;20021;-71
2023/03/24 03:52:37;;;;;;;148.15;26.02;;;;;;;3.54;100.00;100864.94;5050751;28;20037;-71
2023/03/24 03:55:04;;;;;;;144.75;25.55;;;;;;;3.82;100.00;100898.03;5050627;28;20036;-71
2023/03/24 03:57:30;;;;;;;92.00;25.33;;;;;;;4.12;100.00;100904.31;5050334;28;20029;-72
2023/03/24 03:59:57;;;;;;;100.15;25.17;;;;;;;3.81;100.00;100811.69;5048928;28;20036;-71
2023/03/24 04:02:39;;;;;;;83.18;23.95;;;;;;;4.72;100.00;100889.09;5050450;28;20094;-72
2023/03/24 04:05:09;;;;;;;78.18;25.13;;;;;;;4.16;100.00;100880.06;5050923;28;20040;-70
2023/03/24 04:08:09;;;;;;;85.05;28.08;;;;;;;4.34;100.00;100885.28;5056733;28;20039;-71
2023/03/24 04:10:49;;;;;;;77.07;27.23;;;;;;;4.11;100.00;100880.00;5047710;28;20041;-71
2023/03/24 04:13:33;;;;;;;53.63;24.02;;;;;;;4.23;100.00;100837.38;5056825;28;20055;-71
2023/03/24 04:16:08;;;;;;;45.80;24.23;;;;;;;4.41;100.00;100897.13;5056529;28;20381;-71
2023/03/24 04:18:43;;;;;;;46.97;24.10;;;;;;;4.34;100.00;100897.88;5036935;28;20033;-71
2023/03/24 04:21:47;;;;;;;46.17;26.02;;;;;;;4.17;100.00;100889.28;5051865;28;20044;-71
2023/03/24 04:24:38;;;;;;;50.80;24.92;;;;;;;4.11;100.00;100867.44;5051882;28;20056;-71
2023/03/24 04:27:08;;;;;;;63.90;25.80;;;;;;;4.14;100.00;100880.03;5055824;28;20024;-72
2023/03/24 04:29:51;;;;;;;60.28;26.30;;;;;;;3.72;100.00;100808.22;5054156;28;20040;-71
2023/03/24 04:32:32;;;;;;;68.40;26.38;;;;;;;4.21;100.00;100860.81;5051752;28;20029;-73
2023/03/24 04:35:03;;;;;;;60.63;28.10;;;;;;;4.36;100.00;100866.03;5036926;28;20041;-71
2023/03/24 04:37:36;;;;;;;66.63;31.02;;;;;;;4.16;100.00;100855.72;5037124;28;20725;-72
2023/03/24 04:40:07;;;;;;;53.25;27.52;;;;;;;4.68;100.00;100858.81;5035988;28;20045;-72
2023/03/24 04:42:41;;;;;;;46.58;24.75;;;;;;;4.72;100.00;100868.09;5036452;28;20396;-71
2023/03/24 04:45:07;;;;;;;61.03;26.75;;;;;;;4.70;100.00;100857.16;5035885;28;20435;-73
2023/03/24 04:47:41;;;;;;;82.85;29.65;;;;;;;4.90;100.00;100861.56;5037513;28;20027;-71
2023/03/24 04:50:10;;;;;;;111.45;31.45;;;;;;;4.50;100.00;100882.13;5037092;28;20037;-72
2023/03/24 04:52:39;;;;;;;121.93;31.50;;;;;;;4.57;100.00;100822.63;5036952;28;20080;-71
2023/03/24 04:55:20;;;;;;;161.85;32.80;;;;;;;4.73;100.00;100837.91;5037400;28;20021;-73
2023/03/24 04:57:45;;;;;;;146.93;33.70;;;;;;;4.28;100.00;100870.97;5036880;28;20129;-73
2023/03/24 05:00:11;;;;;;;113.40;29.63;;;;;;;4.16;100.00;100815.47;5035833;28;20036;-74
2023/03/24 05:02:37;;;;;;;79.63;23.42;;;;;;;4.24;100.00;100866.72;5034900;28;20128;-71
2023/03/24 05:05:02;;;;;;;298.40;32.28;;;;;;;4.18;100.00;100854.06;5035194;28;20029;-72
2023/03/24 05:07:28;;;;;;;115.10;26.80;;;;;;;4.82;100.00;100853.09;5037041;28;20388;-74
2023/03/24 05:09:54;;;;;;;89.05;26.73;;;;;;;4.80;100.00;100864.81;5036169;28;20029;-75
2023/03/24 05:12:20;;;;;;;158.70;31.80;;;;;;;4.71;100.00;100811.00;5036874;28;20030;-73
2023/03/24 05:14:45;;;;;;;117.47;31.35;;;;;;;4.32;100.00;100777.06;5035682;28;20053;-73
2023/03/24 05:17:10;;;;;;;164.57;30.20;;;;;;;4.86;100.00;100841.34;5033763;28;20416;-72
2023/03/24 05:19:36;;;;;;;699.75;44.83;;;;;;;4.25;100.00;100849.97;5033461;28;20116;-72
2023/03/24 05:22:01;;;;;;;114.07;28.38;;;;;;;4.69;100.00;100795.03;5032308;28;20037;-72
2023/03/24 05:24:27;;;;;;;184.88;28.60;;;;;;;4.56;100.00;100815.88;5033913;28;20068;-73
2023/03/24 05:27:01;;;;;;;390.55;37.42;;;;;;;4.47;100.00;100768.84;5044606;28;20065;-74
2023/03/24 05:29:27;;;;;;;293.80;34.67;;;;;;;5.12;100.00;100812.19;5057729;28;20056;-73
2023/03/24 05:31:52;;;;;;;331.05;36.45;;;;;;;4.91;100.00;100795.22;5033753;28;20530;-76
2023/03/24 05:34:18;;;;;;;265.00;34.03;;;;;;;4.98;100.00;100802.00;5032837;28;20121;-77
2023/03/24 05:36:52;;;;;;;253.63;30.63;;;;;;;4.91;100.00;100809.50;5034321;28;20112;-76
2023/03/24 05:39:17;;;;;;;303.50;30.55;;;;;;;5.33;100.00;100796.38;5033599;28;20037;-75
2023/03/24 05:41:43;;;;;;;229.30;32.42;;;;;;;4.71;100.00;100758.97;5033510;28;20056;-75
2023/03/24 05:44:08;;;;;;;462.95;40.55;;;;;;;5.36;100.00;100756.06;5032894;28;20542;-77
2023/03/24 05:46:34;;;;;;;297.92;33.63;;;;;;;5.58;100.00;100788.13;5032321;28;20034;-76
2023/03/24 05:48:59;;;;;;;287.98;31.30;;;;;;;5.57;100.00;100784.75;5048052;28;20562;-76
2023/03/24 05:51:25;;;;;;;191.75;30.58;;;;;;;5.64;100.00;100786.47;5051001;28;20037;-76
2023/03/24 05:53:51;;;;;;;119.03;27.75;;;;;;;5.69;100.00;100794.03;5053191;28;20024;-76
2023/03/24 05:56:16;;;;;;;257.75;34.65;;;;;;;5.86;100.00;100783.22;5052887;28;20025;-76
2023/03/24 05:58:43;;;;;;;218.00;34.00;;;;;;;5.27;100.00;100787.09;5052522;28;20392;-75
2023/03/24 06:01:09;;;;;;;155.95;33.20;;;;;;;4.88;100.00;100724.69;5052643;28;20093;-75
2023/03/24 06:03:37;;;;;;;189.70;42.85;;;;;;;5.64;100.00;100791.53;4697974;28;9999705;-76
2023/03/24 06:06:05;;;;;;;136.70;43.63;;;;;;;5.93;100.00;100790.00;5029597;28;20087;-77
2023/03/24 06:08:32;;;;;;;145.60;44.50;;;;;;;5.40;100.00;100810.69;5030957;28;20029;-77
2023/03/24 06:11:01;;;;;;;140.35;42.90;;;;;;;5.82;100.00;100798.34;5029420;28;20127;-76
2023/03/24 06:13:27;;;;;;;84.25;39.47;;;;;;;5.55;100.00;100738.50;5030649;28;20571;-76
2023/03/24 06:15:59;;;;;;;134.88;47.88;;;;;;;5.54;100.00;100715.81;5030228;28;20112;-77
2023/03/24 06:18:25;;;;;;;105.03;43.60;;;;;;;5.95;100.00;100792.53;5031227;28;20168;-77
2023/03/24 06:20:55;;;;;;;126.82;44.47;;;;;;;5.90;100.00;100797.53;5030062;28;20037;-74
2023/03/24 06:23:24;;;;;;;144.75;46.90;;;;;;;6.20;100.00;100748.00;5028810;28;20126;-74
2023/03/24 06:25:51;;;;;;;181.52;50.25;;;;;;;6.02;100.00;100804.34;5030433;28;20121;-73
2023/03/24 06:28:16;;;;;;;131.73;48.05;;;;;;;6.04;100.00;100696.66;5027410;28;20551;-74
2023/03/24 06:30:45;;;;;;;123.43;48.13;;;;;;;6.39;100.00;100724.47;5028881;28;20029;-71
2023/03/24 06:33:12;;;;;;;114.70;47.92;;;;;;;6.69;100.00;100772.47;5028756;28;20064;-73
2023/03/24 06:35:38;;;;;;;104.45;49.17;;;;;;;6.95;100.00;100750.59;5030178;28;20033;-73
2023/03/24 06:38:04;;;;;;;154.55;53.80;;;;;;;7.19;100.00;100775.81;5030320;28;20033;-73
2023/03/24 06:40:30;;;;;;;130.48;58.67;;;;;;;6.99;100.00;100780.88;5029516;28;20416;-73
2023/03/24 06:42:56;;;;;;;131.07;59.60;;;;;;;6.67;100.00;100708.50;5028865;28;20037;-74
2023/03/24 06:45:21;;;;;;;106.20;54.85;;;;;;;7.03;100.00;100736.25;5029145;28;20033;-75
2023/03/24 06:47:47;;;;;;;89.43;50.20;;;;;;;7.58;100.00;100734.41;5028454;28;20052;-73
2023/03/24 06:50:12;;;;;;;101.05;52.35;;;;;;;7.96;100.00;100749.44;5028438;28;20103;-73
2023/03/24 06:52:37;;;;;;;101.35;53.65;;;;;;;8.16;100.00;100700.34;5028411;28;20040;-76
2023/03/24 06:55:03;;;;;;;56.60;33.80;;;;;;;8.12;100.00;100703.75;5028480;28;20035;-74
2023/03/24 06:57:29;;;;;;;46.65;27.95;;;;;;;7.88;100.00;100714.84;5029788;28;20065;-75
2023/03/24 06:59:54;;;;;;;47.33;29.90;;;;;;;8.62;100.00;100744.81;5029248;28;20037;-74
2023/03/24 07:02:20;;;;;;;53.55;32.70;;;;;;;8.56;100.00;100686.56;5030462;28;20091;-74
2023/03/24 07:04:46;;;;;;;42.50;27.58;;;;;;;9.56;100.00;100701.59;5055538;28;20078;-75
2023/03/24 07:07:11;;;;;;;53.22;32.10;;;;;;;9.94;100.00;100710.41;5069049;28;20043;-74
2023/03/24 07:09:38;;;;;;;52.42;33.08;;;;;;;9.79;100.00;100655.59;5068134;28;20028;-74
2023/03/24 07:12:07;;;;;;;41.97;28.27;;;;;;;10.54;100.00;100711.25;5068498;28;20033;-73
2023/03/24 07:14:33;;;;;;;51.67;30.55;;;;;;;10.27;100.00;100659.97;5067945;28;20028;-73
2023/03/24 07:16:58;;;;;;;50.33;27.35;;;;;;;10.14;100.00;100648.31;5067696;28;20032;-73
2023/03/24 07:19:24;;;;;;;52.08;31.58;;;;;;;10.65;100.00;100683.94;5069053;28;20033;-74
2023/03/24 07:21:49;;;;;;;49.50;30.40;;;;;;;11.18;100.00;100668.53;5069950;28;20235;-73
2023/03/24 07:24:18;;;;;;;49.67;29.17;;;;;;;10.84;100.00;100637.81;5067961;28;20025;-72
2023/03/24 07:26:44;;;;;;;48.42;28.48;;;;;;;11.49;100.00;100630.59;5069809;28;20033;-74
2023/03/24 07:29:10;;;;;;;49.42;30.10;;;;;;;11.61;100.00;100618.41;5068673;28;20035;-73
2023/03/24 07:31:37;;;;;;;59.72;33.47;;;;;;;12.06;100.00;100635.22;5068839;28;20036;-72
2023/03/24 07:34:06;;;;;;;64.75;37.03;;;;;;;12.52;100.00;100622.19;5067363;28;20028;-74
2023/03/24 07:36:32;;;;;;;56.97;35.42;;;;;;;12.81;100.00;100609.53;5069025;28;20085;-73
2023/03/24 07:38:57;;;;;;;46.42;31.40;;;;;;;12.76;100.00;100585.00;5068349;28;20443;-74
2023/03/24 07:41:26;;;;;;;40.80;28.50;;;;;;;13.15;100.00;100594.16;5045203;28;20033;-73
2023/03/24 07:43:51;;;;;;;38.15;27.40;;;;;;;12.41;100.00;100524.75;5029624;28;20033;-74
2023/03/24 07:46:17;;;;;;;38.63;26.02;;;;;;;12.87;100.00;100604.25;5029132;28;20036;-76
2023/03/24 07:48:42;;;;;;;36.65;25.98;;;;;;;11.79;100.00;100567.09;5029446;28;20037;-74
2023/03/24 07:51:08;;;;;;;44.28;28.92;;;;;;;13.44;100.00;100580.50;5028458;28;20029;-75
2023/03/24 07:53:33;;;;;;;41.25;29.15;;;;;;;13.40;100.00;100543.19;5028313;28;20124;-74
2023/03/24 07:55:59;;;;;;;39.45;28.67;;;;;;;13.71;100.00;100526.84;5029500;28;20707;-74
2023/03/24 07:58:24;;;;;;;36.67;28.15;;;;;;;13.67;100.00;100524.44;5028049;28;20045;-74
2023/03/24 08:00:50;;;;;;;38.13;28.42;;;;;;;13.42;100.00;100561.84;5028122;28;20017;-74
2023/03/24 08:03:15;;;;;;;33.53;25.50;;;;;;;13.21;100.00;100532.66;5028511;28;20195;-74
2023/03/24 08:05:42;;;;;;;37.72;26.35;;;;;;;13.67;100.00;100573.81;5067929;28;20033;-73
2023/03/24 08:08:07;;;;;;;35.78;27.00;;;;;;;14.23;100.00;100559.22;5067733;28;20025;-73
2023/03/24 08:10:33;;;;;;;34.53;26.70;;;;;;;14.78;100.00;100548.78;5067062;28;20181;-72
2023/03/24 08:12:59;;;;;;;33.83;25.42;;;;;;;13.69;100.00;100559.28;5068128;28;20115;-72
2023/03/24 08:15:26;;;;;;;36.08;25.63;;;;;;;14.22;100.00;100541.38;5067596;28;20044;-74
2023/03/24 08:17:53;;;;;;;20.70;18.13;;;;;;;13.67;100.00;100530.38;5067060;28;20028;-72
2023/03/24 08:20:20;;;;;;;21.67;17.80;;;;;;;14.02;100.00;100536.09;5068362;28;20033;-73
2023/03/24 08:22:48;;;;;;;24.60;19.13;;;;;;;14.99;100.00;100502.78;5068242;28;20036;-72
2023/03/24 08:25:18;;;;;;;21.75;19.08;;;;;;;13.46;100.00;100490.19;5068273;28;20089;-73
2023/03/24 08:27:43;;;;;;;21.50;18.33;;;;;;;14.52;100.00;100507.91;5067632;28;20066;-73
2023/03/24 08:30:12;;;;;;;22.15;18.85;;;;;;;15.58;100.00;100458.59;5068319;28;20068;-73
2023/03/24 08:32:43;;;;;;;21.45;18.92;;;;;;;15.42;100.00;100421.69;5067699;28;20066;-71
2023/03/24 08:35:13;;;;;;;22.58;18.75;;;;;;;14.33;100.00;100481.31;5065911;28;20041;-71
2023/03/24 08:37:41;;;;;;;23.17;19.02;;;;;;;14.31;100.00;100436.22;5065565;28;20573;-70
2023/03/24 08:40:12;;;;;;;21.15;18.95;;;;;;;15.47;100.00;100383.03;5065830;28;20032;-72
2023/03/24 08:42:39;;;;;;;22.00;19.73;;;;;;;15.58;100.00;100419.31;5066192;28;20115;-71
2023/03/24 08:45:05;;;;;;;21.52;19.23;;;;;;;14.84;100.00;100401.78;5059074;28;20469;-69
2023/03/24 08:47:31;;;;;;;21.23;19.02;;;;;;;15.77;100.00;100427.09;5044534;28;20029;-71
2023/03/24 08:49:57;;;;;;;20.30;18.30;;;;;;;15.91;100.00;100363.22;5044797;28;20087;-71
2023/03/24 08:52:23;;;;;;;21.90;19.70;;;;;;;13.59;100.00;100432.69;5046972;28;20119;-71
2023/03/24 08:54:49;;;;;;;21.77;19.65;;;;;;;14.47;100.00;100415.16;5049853;28;20029;-72
2023/03/24 08:57:16;;;;;;;17.80;16.00;;;;;;;14.67;100.00;100450.22;5048842;28;20036;-72
2023/03/24 08:59:41;;;;;;;18.58;16.17;;;;;;;15.93;100.00;100361.41;5050410;28;20044;-69
2023/03/24 09:02:10;;;;;;;20.52;18.33;;;;;;;14.98;100.00;100396.97;5048428;28;20033;-70
2023/03/24 09:04:36;;;;;;;20.05;17.98;;;;;;;16.00;100.00;100357.69;5061684;28;20045;-70
2023/03/24 09:07:02;;;;;;;19.40;17.40;;;;;;;14.60;100.00;100430.84;5070201;28;20053;-70
2023/03/24 09:09:28;;;;;;;17.42;15.52;;;;;;;15.63;100.00;100429.41;5068304;28;20081;-70
2023/03/24 09:11:53;;;;;;;17.85;16.05;;;;;;;16.70;100.00;100409.28;5069862;28;20036;-69
2023/03/24 09:14:21;;;;;;;17.90;16.10;;;;;;;16.49;100.00;100398.25;5069662;28;20078;-69
2023/03/24 09:16:47;;;;;;;15.27;13.73;;;;;;;16.25;100.00;100359.09;5070281;28;20058;-68
2023/03/24 09:19:13;;;;;;;18.40;14.95;;;;;;;16.92;100.00;100384.25;5070099;28;20438;-70
2023/03/24 09:21:40;;;;;;;15.82;13.95;;;;;;;15.26;100.00;100400.09;5070927;28;20039;-72
2023/03/24 09:24:06;;;;;;;16.55;14.95;;;;;;;16.18;100.00;100413.31;5071130;28;20074;-72
2023/03/24 09:26:32;;;;;;;19.00;17.00;;;;;;;17.17;100.00;100405.31;5070521;28;20036;-71
2023/03/24 09:28:58;;;;;;;20.40;18.30;;;;;;;17.62;100.00;100394.53;5070134;28;20123;-72
2023/03/24 09:31:24;;;;;;;29.38;17.58;;;;;;;16.50;100.00;100353.69;5068498;28;20144;-70
2023/03/24 09:33:50;;;;;;;17.05;15.45;;;;;;;16.84;100.00;100418.00;5070168;28;20591;-70
2023/03/24 09:36:15;;;;;;;17.60;15.05;;;;;;;16.95;100.00;100397.78;5070423;28;20036;-69
2023/03/24 09:38:41;;;;;;;16.38;14.60;;;;;;;17.12;100.00;100402.94;5068249;28;20025;-69
2023/03/24 09:41:17;;;;;;;15.52;13.93;;;;;;;16.80;100.00;100375.38;5069580;28;20418;-69
2023/03/24 09:43:51;;;;;;;14.25;12.85;;;;;;;16.48;100.00;100365.72;5069216;28;20158;-69
2023/03/24 09:46:34;;;;;;;17.02;12.65;;;;;;;17.45;100.00;100397.09;5070226;28;20051;-72
2023/03/24 09:49:00;;;;;;;16.92;12.65;;;;;;;18.06;100.00;100391.34;5070241;28;20078;-68
2023/03/24 09:51:35;;;;;;;15.63;13.18;;;;;;;17.38;100.00;100417.09;5068938;28;20051;-69
2023/03/24 09:54:07;;;;;;;14.20;12.70;;;;;;;18.10;100.00;100397.19;5069997;28;20509;-70
2023/03/24 09:56:35;;;;;;;;;;;;;;;17.18;100.00;100409.53;5070304;28;20094;-70
2023/03/24 09:59:03;;;;;;;12.40;11.10;;;;;;;17.51;100.00;100399.38;5070705;28;20309;-70
2023/03/24 10:01:29;;;;;;;14.02;12.55;;;;;;;15.64;100.00;100342.16;5069907;28;20032;-67
2023/03/24 10:03:58;;;;;;;13.50;12.07;;;;;;;17.92;100.00;100372.41;5061249;28;20049;-68
2023/03/24 10:06:30;;;;;;;13.93;12.48;;;;;;;18.13;100.00;100368.69;5049248;28;20507;-68
2023/03/24 10:09:29;;;;;;;17.55;14.20;;;;;;;17.74;100.00;100327.03;5048482;28;20136;-69
2023/03/24 10:12:05;;;;;;;17.40;15.27;;;;;;;18.38;100.00;100314.16;5050623;28;20395;-70
2023/03/24 10:14:41;;;;;;;13.57;12.02;;;;;;;18.06;100.00;100308.19;5050336;28;20895;-69
2023/03/24 10:17:55;;;;;;;16.42;14.05;;;;;;;17.66;100.00;100270.03;5049499;28;20025;-70
2023/03/24 10:20:42;;;;;;;16.73;14.88;;;;;;;18.59;100.00;100220.28;5017770;28;20059;-70
2023/03/24 10:23:32;;;;;;;14.57;13.07;;;;;;;18.65;100.00;100161.53;5048849;28;20061;-69
2023/03/24 10:26:27;;;;;;;17.08;15.38;;;;;;;17.88;100.00;100118.78;5048571;28;20499;-69
2023/03/24 10:29:12;;;;;;;17.77;15.50;;;;;;;18.85;100.00;100065.88;5047412;28;20151;-69
2023/03/24 10:31:40;;;;;;;16.40;14.70;;;;;;;18.36;100.00;100000.13;5048927;28;20049;-69
2023/03/24 10:34:10;;;;;;;18.17;16.10;;;;;;;18.28;100.00;99841.94;5049250;28;20039;-69
2023/03/24 10:36:37;;;;;;;19.27;17.10;;;;;;;19.40;100.00;99766.78;5043290;28;20104;-69
2023/03/24 10:39:02;;;;;;;17.42;15.48;;;;;;;18.26;100.00;99631.00;5027273;28;20158;-69
2023/03/24 10:41:28;;;;;;;26.27;18.88;;;;;;;18.79;100.00;99472.91;5028680;28;20553;-69
2023/03/24 10:43:56;;;;;;;18.08;15.43;;;;;;;18.20;100.00;99379.19;5035777;28;20033;-69
2023/03/24 10:46:24;;;;;;;18.50;16.33;;;;;;;19.45;100.00;99206.91;5048515;28;20115;-69
2023/03/24 10:48:53;;;;;;;17.30;15.18;;;;;;;17.25;100.00;99098.66;5049884;28;20036;-69
2023/03/24 10:51:30;;;;;;;26.00;19.00;;;;;;;17.37;100.00;99008.81;5050818;28;20040;-67
2023/03/24 10:54:09;;;;;;;18.63;15.38;;;;;;;18.99;100.00;98830.81;5049913;28;20060;-69
2023/03/24 10:56:57;;;;;;;19.60;16.27;;;;;;;18.75;100.00;98469.69;5050429;28;20029;-72
2023/03/24 10:59:33;;;;;;;22.60;18.13;;;;;;;18.40;100.00;98261.63;5051748;28;20021;-69
2023/03/24 11:02:08;;;;;;;22.63;18.85;;;;;;;19.02;100.00;98114.41;5050953;28;20033;-70
2023/03/24 11:04:38;;;;;;;19.58;15.98;;;;;;;19.85;100.00;97975.78;5049578;28;20136;-69
2023/03/24 11:07:26;;;;;;;22.30;17.20;;;;;;;19.31;100.00;97841.16;5051159;28;20037;-69
2023/03/24 11:09:59;;;;;;;18.75;15.65;;;;;;;19.67;100.00;97512.69;5042174;28;20501;-68
2023/03/24 11:12:28;;;;;;;21.10;16.10;;;;;;;18.95;100.00;97529.59;5050256;28;20033;-69
2023/03/24 11:15:20;;;;;;;17.70;13.73;;;;;;;19.58;100.00;97194.03;5049431;28;20044;-68
2023/03/24 11:17:51;;;;;;;16.67;14.57;;;;;;;19.39;100.00;96959.97;5050375;28;20043;-69
2023/03/24 11:20:29;;;;;;;17.95;13.93;;;;;;;19.47;100.00;96496.13;5049917;28;20047;-69